| time (UTC) | temp C | wind direction | speed KPH | gust KPH | rain 1hr cm | rain 24hr cm | rain mn cm | humidity % | barometer mb |
| 20260505101344 | 6 | 53 | 0.0 | 3.2 | 0.00 | 0.00 | 0.51 | 96 | 1011.0 |
| 20260505095841 | 6 | 357 | 0.0 | 0.0 | 0.00 | 0.00 | 0.51 | 93 | 1010.9 |
| 20260505094338 | 6 | 44 | 0.0 | 0.0 | 0.00 | 0.00 | 0.51 | 94 | 1010.9 |
| 20260505092835 | 6 | 89 | 0.0 | 1.6 | 0.00 | 0.00 | 0.51 | 93 | 1010.8 |
| 20260505091332 | 7 | 46 | 1.6 | 1.6 | 0.00 | 0.00 | 0.51 | 93 | 1010.9 |
| 20260505085829 | 7 | 44 | 0.0 | 1.6 | 0.00 | 0.00 | 0.51 | 92 | 1011.0 |
| 20260505084326 | 7 | 43 | 0.0 | 1.6 | 0.00 | 0.00 | 0.51 | 91 | 1011.0 |
| 20260505082823 | 8 | 43 | 0.0 | 1.6 | 0.00 | 0.00 | 0.51 | 89 | 1011.2 |
| 20260505081320 | 8 | 135 | 0.0 | 1.6 | 0.00 | 0.00 | 0.51 | 89 | 1011.3 |
| 20260505075817 | 8 | 42 | 0.0 | 1.6 | 0.00 | 0.00 | 0.51 | 89 | 1011.5 |
| 20260505074314 | 9 | 44 | 0.0 | 0.0 | 0.00 | 0.00 | 0.51 | 88 | 1011.7 |
| 20260505072812 | 9 | 348 | 0.0 | 0.0 | 0.00 | 0.00 | 0.51 | 87 | 1011.9 |
| 20260505071309 | 9 | 231 | 0.0 | 0.0 | 0.00 | 0.00 | 0.51 | 87 | 1011.9 |
| 20260505065806 | 9 | 230 | 0.0 | 4.8 | 0.00 | 0.00 | 0.51 | 88 | 1011.7 |
| 20260505064732 | 10 | 113 | 1.6 | 1.6 | 0.00 | 0.00 | 0.48 | 88 | 1012.2 |
| 20260505062800 | 9 | 75 | 1.6 | 3.2 | 0.00 | 0.00 | 0.51 | 88 | 1012.0 |
| 20260505061257 | 9 | 44 | 0.0 | 1.6 | 0.00 | 0.00 | 0.51 | 88 | 1012.0 |
| 20260505055754 | 10 | 64 | 0.0 | 0.0 | 0.00 | 0.00 | 0.51 | 88 | 1012.1 |
| 20260505054251 | 9 | 226 | 0.0 | 0.0 | 0.00 | 0.00 | 0.51 | 86 | 1012.2 |
| 20260505052748 | 10 | 113 | 1.6 | 1.6 | 0.00 | 0.00 | 0.48 | 88 | 1012.2 |
| 20260505051245 | 10 | 72 | 1.6 | 1.6 | 0.00 | 0.00 | 0.48 | 89 | 1012.3 |
| 20260505041233 | 9 | 44 | 0.0 | 3.2 | 0.00 | 0.00 | 0.46 | 85 | 1013.0 |
| 20260505035730 | 9 | 65 | 0.0 | 4.8 | 0.00 | 0.00 | 0.46 | 86 | 1012.8 |
| 20260505034227 | 9 | 36 | 0.0 | 4.8 | 0.00 | 0.00 | 0.46 | 88 | 1012.7 |
| 20260505032724 | 9 | 117 | 1.6 | 4.8 | 0.00 | 0.00 | 0.43 | 86 | 1012.4 |
| 20260505031222 | 10 | 13 | 1.6 | 3.2 | 0.00 | 0.00 | 0.38 | 82 | 1012.6 |
| 20260505025719 | 10 | 85 | 1.6 | 3.2 | 0.00 | 0.00 | 0.30 | 79 | 1012.3 |
| 20260505024216 | 10 | 358 | 1.6 | 4.8 | 0.00 | 0.00 | 0.23 | 78 | 1012.0 |
| 20260505022713 | 11 | 7 | 0.0 | 1.6 | 0.00 | 0.00 | 0.20 | 70 | 1011.7 |
| 20260505021210 | 11 | 128 | 3.2 | 4.8 | 0.00 | 0.00 | 0.18 | 67 | 1011.6 |
| 20260505015707 | 11 | 260 | 1.6 | 4.8 | 0.00 | 0.00 | 0.15 | 62 | 1011.3 |
| 20260505014204 | 12 | 0 | 1.6 | 9.7 | 0.00 | 0.00 | 0.13 | 60 | 1010.4 |
| 20260505011158 | 15 | 315 | 1.6 | 4.8 | 0.00 | 0.00 | 0.00 | 44 | 1009.4 |
| 20260505005655 | 16 | 314 | 1.6 | 6.4 | 0.00 | 0.00 | 0.00 | 36 | 1009.3 |
| 20260505004152 | 17 | 357 | 4.8 | 4.8 | 0.00 | 0.00 | 0.00 | 33 | 1008.8 |
| 20260505002649 | 18 | 306 | 0.0 | 3.2 | 0.00 | 0.00 | 0.00 | 31 | 1008.7 |
| 20260505001146 | 18 | 168 | 1.6 | 3.2 | 0.00 | 0.00 | 0.00 | 29 | 1008.8 |
| 20260504235643 | 20 | 88 | 1.6 | 6.4 | 0.00 | 0.00 | 0.00 | 25 | 1008.8 |
| 20260504234140 | 21 | 180 | 0.0 | 4.8 | 0.00 | 0.00 | 0.00 | 24 | 1008.7 |
| 20260504232637 | 21 | 274 | 6.4 | 20.9 | 0.00 | 0.00 | 0.00 | 21 | 1008.7 |
| 20260504231134 | 21 | 225 | 17.7 | 19.3 | 0.00 | 0.00 | 0.00 | 19 | 1008.6 |
| 20260504225631 | 21 | 268 | 8.0 | 20.9 | 0.00 | 0.00 | 0.00 | 19 | 1008.2 |
| 20260504224129 | 21 | 241 | 9.7 | 17.7 | 0.00 | 0.00 | 0.00 | 19 | 1008.4 |
| 20260504222626 | 21 | 261 | 11.3 | 14.5 | 0.00 | 0.00 | 0.00 | 20 | 1008.4 |
| 20260504221123 | 21 | 248 | 9.7 | 16.1 | 0.00 | 0.00 | 0.00 | 21 | 1008.4 |
| 20260504215620 | 21 | 232 | 11.3 | 16.1 | 0.00 | 0.00 | 0.00 | 23 | 1008.7 |
| 20260504214117 | 22 | 92 | 6.4 | 9.7 | 0.00 | 0.00 | 0.00 | 25 | 1008.9 |
| 20260504212614 | 21 | 207 | 9.7 | 9.7 | 0.00 | 0.00 | 0.00 | 24 | 1009.4 |
| 20260504211111 | 21 | 228 | 8.0 | 17.7 | 0.00 | 0.00 | 0.00 | 24 | 1009.4 |
| 20260504204105 | 19 | 154 | 1.6 | 11.3 | 0.00 | 0.00 | 0.00 | 29 | 1010.0 |
| 20260504202602 | 19 | 242 | 3.2 | 11.3 | 0.00 | 0.00 | 0.00 | 29 | 1010.2 |
| 20260504201059 | 18 | 233 | 6.4 | 11.3 | 0.00 | 0.00 | 0.00 | 31 | 1010.6 |
| 20260504195556 | 19 | 282 | 4.8 | 9.7 | 0.00 | 0.00 | 0.00 | 29 | 1010.6 |
| 20260504194053 | 20 | 257 | 8.0 | 8.0 | 0.00 | 0.00 | 0.00 | 28 | 1010.8 |
| 20260504192550 | 20 | 247 | 6.4 | 11.3 | 0.00 | 0.00 | 0.00 | 29 | 1011.1 |
| 20260504191047 | 18 | 87 | 1.6 | 8.0 | 0.00 | 0.00 | 0.00 | 35 | 1011.2 |
| 20260504185544 | 18 | 270 | 3.2 | 8.0 | 0.00 | 0.00 | 0.00 | 34 | 1011.5 |
| 20260504184041 | 18 | 273 | 9.7 | 11.3 | 0.00 | 0.00 | 0.00 | 31 | 1011.5 |
| 20260504182539 | 20 | 260 | 6.4 | 16.1 | 0.00 | 0.00 | 0.00 | 26 | 1011.5 |
| 20260504182355 | 20 | 226 | 6.4 | 17.7 | 0.00 | 0.00 | 0.00 | 29 | 1011.8 |
| 20260504181036 | 21 | 69 | 4.8 | 9.7 | 0.00 | 0.00 | 0.00 | 27 | 1011.4 |
| 20260504175533 | 20 | 226 | 6.4 | 17.7 | 0.00 | 0.00 | 0.00 | 29 | 1011.8 |
| 20260504174030 | 20 | 118 | 4.8 | 11.3 | 0.00 | 0.00 | 0.00 | 28 | 1011.9 |
| 20260504172527 | 20 | 274 | 1.6 | 9.7 | 0.00 | 0.00 | 0.00 | 28 | 1011.7 |
| 20260504171024 | 20 | 265 | 1.6 | 4.8 | 0.00 | 0.00 | 0.00 | 28 | 1011.8 |
| 20260504151000 | 15 | 36 | 3.2 | 4.8 | 0.00 | 0.00 | 0.00 | 46 | 1013.9 |
| 20260504140949 | 11 | 76 | 3.2 | 4.8 | 0.00 | 0.00 | 0.00 | 60 | 1014.5 |